sensor_id;sensor_type;location;lat;lon;timestamp;P1;durP1;ratioP1;P2;durP2;ratioP2
17796;SDS011;55596;53.554;9.916;2023-06-10T00:01:28;7.83;;;4.70;;
17796;SDS011;55596;53.554;9.916;2023-06-10T00:03:56;8.57;;;4.77;;
17796;SDS011;55596;53.554;9.916;2023-06-10T00:06:23;8.60;;;4.67;;
17796;SDS011;55596;53.554;9.916;2023-06-10T00:08:50;10.13;;;4.33;;
17796;SDS011;55596;53.554;9.916;2023-06-10T00:11:21;6.90;;;4.03;;
17796;SDS011;55596;53.554;9.916;2023-06-10T00:13:50;9.90;;;4.03;;
17796;SDS011;55596;53.554;9.916;2023-06-10T00:16:17;9.53;;;4.60;;
17796;SDS011;55596;53.554;9.916;2023-06-10T00:18:44;10.53;;;5.03;;
17796;SDS011;55596;53.554;9.916;2023-06-10T00:21:12;8.17;;;4.37;;
17796;SDS011;55596;53.554;9.916;2023-06-10T00:23:40;9.90;;;4.23;;
17796;SDS011;55596;53.554;9.916;2023-06-10T00:26:07;11.20;;;4.60;;
17796;SDS011;55596;53.554;9.916;2023-06-10T00:28:35;9.07;;;4.47;;
17796;SDS011;55596;53.554;9.916;2023-06-10T00:31:03;11.13;;;4.20;;
17796;SDS011;55596;53.554;9.916;2023-06-10T00:33:30;9.60;;;4.33;;
17796;SDS011;55596;53.554;9.916;2023-06-10T00:35:57;11.73;;;4.53;;
17796;SDS011;55596;53.554;9.916;2023-06-10T00:38:24;13.47;;;4.37;;
17796;SDS011;55596;53.554;9.916;2023-06-10T00:40:52;9.37;;;4.30;;
17796;SDS011;55596;53.554;9.916;2023-06-10T00:43:20;9.50;;;3.97;;
17796;SDS011;55596;53.554;9.916;2023-06-10T00:45:48;8.27;;;3.67;;
17796;SDS011;55596;53.554;9.916;2023-06-10T00:48:16;9.80;;;3.50;;
17796;SDS011;55596;53.554;9.916;2023-06-10T00:50:47;8.97;;;3.63;;
17796;SDS011;55596;53.554;9.916;2023-06-10T00:53:14;6.37;;;3.37;;
17796;SDS011;55596;53.554;9.916;2023-06-10T00:55:42;8.97;;;3.63;;
17796;SDS011;55596;53.554;9.916;2023-06-10T00:58:09;10.53;;;3.97;;
17796;SDS011;55596;53.554;9.916;2023-06-10T01:00:37;8.60;;;3.80;;
17796;SDS011;55596;53.554;9.916;2023-06-10T01:03:07;9.57;;;3.57;;
17796;SDS011;55596;53.554;9.916;2023-06-10T01:05:35;8.20;;;3.33;;
17796;SDS011;55596;53.554;9.916;2023-06-10T01:08:03;10.33;;;3.90;;
17796;SDS011;55596;53.554;9.916;2023-06-10T01:10:36;7.47;;;3.60;;
17796;SDS011;55596;53.554;9.916;2023-06-10T01:13:05;8.70;;;3.37;;
17796;SDS011;55596;53.554;9.916;2023-06-10T01:15:36;9.10;;;3.40;;
17796;SDS011;55596;53.554;9.916;2023-06-10T01:18:04;5.93;;;3.20;;
17796;SDS011;55596;53.554;9.916;2023-06-10T01:20:35;13.03;;;3.50;;
17796;SDS011;55596;53.554;9.916;2023-06-10T01:23:07;6.87;;;3.20;;
17796;SDS011;55596;53.554;9.916;2023-06-10T01:25:36;7.50;;;3.20;;
17796;SDS011;55596;53.554;9.916;2023-06-10T01:28:10;12.30;;;3.57;;
17796;SDS011;55596;53.554;9.916;2023-06-10T01:30:41;11.23;;;3.60;;
17796;SDS011;55596;53.554;9.916;2023-06-10T01:33:12;11.97;;;3.97;;
17796;SDS011;55596;53.554;9.916;2023-06-10T01:35:41;6.57;;;2.50;;
17796;SDS011;55596;53.554;9.916;2023-06-10T01:38:10;5.57;;;2.77;;
17796;SDS011;55596;53.554;9.916;2023-06-10T01:40:37;8.47;;;3.53;;
17796;SDS011;55596;53.554;9.916;2023-06-10T01:43:04;9.33;;;3.30;;
17796;SDS011;55596;53.554;9.916;2023-06-10T01:45:32;6.30;;;3.40;;
17796;SDS011;55596;53.554;9.916;2023-06-10T01:48:00;8.67;;;3.20;;
17796;SDS011;55596;53.554;9.916;2023-06-10T01:50:27;9.03;;;3.17;;
17796;SDS011;55596;53.554;9.916;2023-06-10T01:52:56;9.27;;;3.10;;
17796;SDS011;55596;53.554;9.916;2023-06-10T01:55:25;8.70;;;2.87;;
17796;SDS011;55596;53.554;9.916;2023-06-10T01:57:52;9.43;;;3.23;;
17796;SDS011;55596;53.554;9.916;2023-06-10T02:00:19;7.33;;;2.77;;
17796;SDS011;55596;53.554;9.916;2023-06-10T02:02:47;9.13;;;3.37;;
17796;SDS011;55596;53.554;9.916;2023-06-10T02:05:14;6.37;;;2.57;;
17796;SDS011;55596;53.554;9.916;2023-06-10T02:07:41;8.97;;;3.00;;
17796;SDS011;55596;53.554;9.916;2023-06-10T02:10:08;6.77;;;2.47;;
17796;SDS011;55596;53.554;9.916;2023-06-10T02:12:37;7.40;;;2.97;;
17796;SDS011;55596;53.554;9.916;2023-06-10T02:15:04;6.67;;;3.07;;
17796;SDS011;55596;53.554;9.916;2023-06-10T02:17:32;8.43;;;2.97;;
17796;SDS011;55596;53.554;9.916;2023-06-10T02:19:59;8.97;;;3.37;;
17796;SDS011;55596;53.554;9.916;2023-06-10T02:22:31;9.50;;;2.87;;
17796;SDS011;55596;53.554;9.916;2023-06-10T02:24:58;7.40;;;2.83;;
17796;SDS011;55596;53.554;9.916;2023-06-10T02:27:26;8.10;;;2.80;;
17796;SDS011;55596;53.554;9.916;2023-06-10T02:29:54;10.20;;;2.80;;
17796;SDS011;55596;53.554;9.916;2023-06-10T02:32:22;8.83;;;3.00;;
17796;SDS011;55596;53.554;9.916;2023-06-10T02:35:00;8.70;;;3.10;;
17796;SDS011;55596;53.554;9.916;2023-06-10T02:37:27;10.43;;;2.70;;
17796;SDS011;55596;53.554;9.916;2023-06-10T02:39:54;8.07;;;2.70;;
17796;SDS011;55596;53.554;9.916;2023-06-10T02:42:22;13.20;;;2.93;;
17796;SDS011;55596;53.554;9.916;2023-06-10T02:44:49;5.53;;;2.40;;
17796;SDS011;55596;53.554;9.916;2023-06-10T02:47:18;6.13;;;2.20;;
17796;SDS011;55596;53.554;9.916;2023-06-10T02:49:45;10.20;;;2.73;;
17796;SDS011;55596;53.554;9.916;2023-06-10T02:52:13;8.33;;;2.67;;
17796;SDS011;55596;53.554;9.916;2023-06-10T02:54:40;5.90;;;2.40;;
17796;SDS011;55596;53.554;9.916;2023-06-10T02:57:07;10.80;;;2.73;;
17796;SDS011;55596;53.554;9.916;2023-06-10T02:59:36;6.57;;;2.50;;
17796;SDS011;55596;53.554;9.916;2023-06-10T03:02:04;8.37;;;2.33;;
17796;SDS011;55596;53.554;9.916;2023-06-10T03:04:32;11.50;;;3.07;;
17796;SDS011;55596;53.554;9.916;2023-06-10T03:07:03;5.00;;;2.17;;
17796;SDS011;55596;53.554;9.916;2023-06-10T03:09:32;10.63;;;3.13;;
17796;SDS011;55596;53.554;9.916;2023-06-10T03:11:59;8.63;;;2.60;;
17796;SDS011;55596;53.554;9.916;2023-06-10T03:14:26;8.37;;;2.63;;
17796;SDS011;55596;53.554;9.916;2023-06-10T03:16:54;6.60;;;2.30;;
17796;SDS011;55596;53.554;9.916;2023-06-10T03:19:21;8.20;;;2.13;;
17796;SDS011;55596;53.554;9.916;2023-06-10T03:21:57;11.00;;;2.43;;
17796;SDS011;55596;53.554;9.916;2023-06-10T03:24:24;6.70;;;2.50;;
17796;SDS011;55596;53.554;9.916;2023-06-10T03:26:51;7.27;;;2.37;;
17796;SDS011;55596;53.554;9.916;2023-06-10T03:29:18;7.53;;;2.30;;
17796;SDS011;55596;53.554;9.916;2023-06-10T03:31:46;7.90;;;2.97;;
17796;SDS011;55596;53.554;9.916;2023-06-10T03:34:13;9.17;;;2.50;;
17796;SDS011;55596;53.554;9.916;2023-06-10T03:36:40;8.70;;;2.63;;
17796;SDS011;55596;53.554;9.916;2023-06-10T03:39:10;8.33;;;2.57;;
17796;SDS011;55596;53.554;9.916;2023-06-10T03:41:37;6.83;;;2.40;;
17796;SDS011;55596;53.554;9.916;2023-06-10T03:44:04;8.67;;;2.67;;
17796;SDS011;55596;53.554;9.916;2023-06-10T03:46:32;12.20;;;2.73;;
17796;SDS011;55596;53.554;9.916;2023-06-10T03:48:59;6.97;;;2.30;;
17796;SDS011;55596;53.554;9.916;2023-06-10T03:51:26;6.27;;;2.40;;
17796;SDS011;55596;53.554;9.916;2023-06-10T03:53:54;8.83;;;2.57;;
17796;SDS011;55596;53.554;9.916;2023-06-10T03:56:22;10.17;;;2.63;;
17796;SDS011;55596;53.554;9.916;2023-06-10T03:58:50;4.77;;;2.13;;
17796;SDS011;55596;53.554;9.916;2023-06-10T04:01:18;5.83;;;2.17;;
17796;SDS011;55596;53.554;9.916;2023-06-10T04:03:46;7.10;;;2.30;;
17796;SDS011;55596;53.554;9.916;2023-06-10T04:06:14;5.80;;;2.20;;
17796;SDS011;55596;53.554;9.916;2023-06-10T04:08:41;10.80;;;2.83;;
17796;SDS011;55596;53.554;9.916;2023-06-10T04:11:08;9.50;;;2.37;;
17796;SDS011;55596;53.554;9.916;2023-06-10T04:13:37;9.83;;;2.30;;
17796;SDS011;55596;53.554;9.916;2023-06-10T04:16:04;8.47;;;2.43;;
17796;SDS011;55596;53.554;9.916;2023-06-10T04:18:31;7.43;;;2.20;;
17796;SDS011;55596;53.554;9.916;2023-06-10T04:20:58;6.30;;;2.40;;
17796;SDS011;55596;53.554;9.916;2023-06-10T04:23:26;11.83;;;2.47;;
17796;SDS011;55596;53.554;9.916;2023-06-10T04:25:54;5.87;;;2.50;;
17796;SDS011;55596;53.554;9.916;2023-06-10T04:28:21;10.93;;;2.77;;
17796;SDS011;55596;53.554;9.916;2023-06-10T04:30:50;9.03;;;2.10;;
17796;SDS011;55596;53.554;9.916;2023-06-10T04:33:17;10.07;;;2.40;;
17796;SDS011;55596;53.554;9.916;2023-06-10T04:35:45;8.70;;;2.20;;
17796;SDS011;55596;53.554;9.916;2023-06-10T04:38:13;7.57;;;2.30;;
17796;SDS011;55596;53.554;9.916;2023-06-10T04:40:40;7.33;;;2.10;;
17796;SDS011;55596;53.554;9.916;2023-06-10T04:43:08;7.67;;;2.00;;
17796;SDS011;55596;53.554;9.916;2023-06-10T04:45:35;7.97;;;2.17;;
17796;SDS011;55596;53.554;9.916;2023-06-10T04:48:03;8.37;;;2.27;;
17796;SDS011;55596;53.554;9.916;2023-06-10T04:50:31;7.53;;;2.47;;
17796;SDS011;55596;53.554;9.916;2023-06-10T04:52:58;6.50;;;2.40;;
17796;SDS011;55596;53.554;9.916;2023-06-10T04:55:26;6.50;;;2.10;;
17796;SDS011;55596;53.554;9.916;2023-06-10T04:57:53;7.80;;;2.33;;
17796;SDS011;55596;53.554;9.916;2023-06-10T05:00:20;9.57;;;2.60;;
17796;SDS011;55596;53.554;9.916;2023-06-10T05:02:47;5.30;;;1.80;;
17796;SDS011;55596;53.554;9.916;2023-06-10T05:05:17;6.27;;;2.37;;
17796;SDS011;55596;53.554;9.916;2023-06-10T05:07:44;8.20;;;2.10;;
17796;SDS011;55596;53.554;9.916;2023-06-10T05:10:12;9.03;;;2.20;;
17796;SDS011;55596;53.554;9.916;2023-06-10T05:12:39;8.23;;;2.10;;
17796;SDS011;55596;53.554;9.916;2023-06-10T05:15:07;8.87;;;2.40;;
17796;SDS011;55596;53.554;9.916;2023-06-10T05:17:36;9.03;;;2.57;;
17796;SDS011;55596;53.554;9.916;2023-06-10T05:20:04;10.57;;;2.20;;
17796;SDS011;55596;53.554;9.916;2023-06-10T05:22:33;9.73;;;2.53;;
17796;SDS011;55596;53.554;9.916;2023-06-10T05:25:00;8.43;;;2.30;;
17796;SDS011;55596;53.554;9.916;2023-06-10T05:27:27;9.30;;;1.90;;
17796;SDS011;55596;53.554;9.916;2023-06-10T05:29:55;4.33;;;1.77;;
17796;SDS011;55596;53.554;9.916;2023-06-10T05:32:22;7.10;;;2.20;;
17796;SDS011;55596;53.554;9.916;2023-06-10T05:34:49;8.20;;;2.17;;
17796;SDS011;55596;53.554;9.916;2023-06-10T05:37:16;13.83;;;2.23;;
17796;SDS011;55596;53.554;9.916;2023-06-10T05:39:44;6.67;;;2.27;;
17796;SDS011;55596;53.554;9.916;2023-06-10T05:42:12;5.63;;;2.10;;
17796;SDS011;55596;53.554;9.916;2023-06-10T05:44:39;6.03;;;2.33;;
17796;SDS011;55596;53.554;9.916;2023-06-10T05:47:06;6.63;;;2.20;;
17796;SDS011;55596;53.554;9.916;2023-06-10T05:49:34;6.30;;;2.10;;
17796;SDS011;55596;53.554;9.916;2023-06-10T05:52:01;10.40;;;2.80;;
17796;SDS011;55596;53.554;9.916;2023-06-10T05:54:28;7.00;;;1.80;;
17796;SDS011;55596;53.554;9.916;2023-06-10T05:56:57;6.57;;;1.90;;
17796;SDS011;55596;53.554;9.916;2023-06-10T05:59:24;9.20;;;2.47;;
17796;SDS011;55596;53.554;9.916;2023-06-10T06:01:51;5.80;;;2.13;;
17796;SDS011;55596;53.554;9.916;2023-06-10T06:04:18;13.40;;;2.30;;
17796;SDS011;55596;53.554;9.916;2023-06-10T06:06:46;5.40;;;2.30;;
17796;SDS011;55596;53.554;9.916;2023-06-10T06:09:13;10.37;;;2.43;;
17796;SDS011;55596;53.554;9.916;2023-06-10T06:11:40;5.57;;;1.87;;
17796;SDS011;55596;53.554;9.916;2023-06-10T06:14:09;9.83;;;2.20;;
17796;SDS011;55596;53.554;9.916;2023-06-10T06:16:37;8.03;;;2.37;;
17796;SDS011;55596;53.554;9.916;2023-06-10T06:19:05;8.90;;;2.33;;
17796;SDS011;55596;53.554;9.916;2023-06-10T06:21:32;8.07;;;2.23;;
17796;SDS011;55596;53.554;9.916;2023-06-10T06:24:00;9.13;;;2.30;;
17796;SDS011;55596;53.554;9.916;2023-06-10T06:26:27;8.30;;;2.30;;
17796;SDS011;55596;53.554;9.916;2023-06-10T06:28:54;12.33;;;2.57;;
17796;SDS011;55596;53.554;9.916;2023-06-10T06:31:22;8.53;;;2.10;;
17796;SDS011;55596;53.554;9.916;2023-06-10T06:33:50;9.10;;;2.03;;
17796;SDS011;55596;53.554;9.916;2023-06-10T06:36:17;8.60;;;2.37;;
17796;SDS011;55596;53.554;9.916;2023-06-10T06:38:44;8.60;;;2.20;;
17796;SDS011;55596;53.554;9.916;2023-06-10T06:41:11;12.43;;;2.57;;
17796;SDS011;55596;53.554;9.916;2023-06-10T06:43:38;5.97;;;2.00;;
17796;SDS011;55596;53.554;9.916;2023-06-10T06:46:05;7.60;;;2.27;;
17796;SDS011;55596;53.554;9.916;2023-06-10T06:48:34;9.07;;;2.30;;
17796;SDS011;55596;53.554;9.916;2023-06-10T06:51:01;9.47;;;2.83;;
17796;SDS011;55596;53.554;9.916;2023-06-10T06:53:28;7.97;;;2.37;;
17796;SDS011;55596;53.554;9.916;2023-06-10T06:55:55;10.10;;;2.40;;
17796;SDS011;55596;53.554;9.916;2023-06-10T06:58:22;6.97;;;2.13;;
17796;SDS011;55596;53.554;9.916;2023-06-10T07:00:50;9.77;;;2.37;;
17796;SDS011;55596;53.554;9.916;2023-06-10T07:03:18;6.50;;;2.17;;
17796;SDS011;55596;53.554;9.916;2023-06-10T07:05:47;5.77;;;2.40;;
17796;SDS011;55596;53.554;9.916;2023-06-10T07:08:14;6.13;;;2.23;;
17796;SDS011;55596;53.554;9.916;2023-06-10T07:10:41;7.63;;;2.27;;
17796;SDS011;55596;53.554;9.916;2023-06-10T07:13:08;8.97;;;2.53;;
17796;SDS011;55596;53.554;9.916;2023-06-10T07:15:36;7.37;;;2.23;;
17796;SDS011;55596;53.554;9.916;2023-06-10T07:18:03;7.93;;;2.47;;
17796;SDS011;55596;53.554;9.916;2023-06-10T07:20:31;6.73;;;2.60;;
17796;SDS011;55596;53.554;9.916;2023-06-10T07:23:00;7.17;;;2.47;;
17796;SDS011;55596;53.554;9.916;2023-06-10T07:25:27;5.53;;;2.30;;
17796;SDS011;55596;53.554;9.916;2023-06-10T07:27:57;8.67;;;2.53;;
17796;SDS011;55596;53.554;9.916;2023-06-10T07:30:24;9.47;;;2.87;;
17796;SDS011;55596;53.554;9.916;2023-06-10T07:32:51;9.47;;;2.40;;
17796;SDS011;55596;53.554;9.916;2023-06-10T07:35:21;11.17;;;2.67;;
17796;SDS011;55596;53.554;9.916;2023-06-10T07:37:48;8.67;;;2.83;;
17796;SDS011;55596;53.554;9.916;2023-06-10T07:40:21;10.80;;;3.03;;
17796;SDS011;55596;53.554;9.916;2023-06-10T07:42:50;8.70;;;2.70;;
17796;SDS011;55596;53.554;9.916;2023-06-10T07:45:31;9.87;;;2.50;;
17796;SDS011;55596;53.554;9.916;2023-06-10T07:47:58;7.97;;;2.47;;
17796;SDS011;55596;53.554;9.916;2023-06-10T07:50:26;5.40;;;2.10;;
17796;SDS011;55596;53.554;9.916;2023-06-10T07:52:53;10.17;;;2.70;;
17796;SDS011;55596;53.554;9.916;2023-06-10T07:55:22;7.17;;;2.53;;
17796;SDS011;55596;53.554;9.916;2023-06-10T07:57:50;6.17;;;2.43;;
17796;SDS011;55596;53.554;9.916;2023-06-10T08:00:18;5.80;;;2.40;;
17796;SDS011;55596;53.554;9.916;2023-06-10T08:02:45;7.47;;;2.50;;
17796;SDS011;55596;53.554;9.916;2023-06-10T08:05:13;7.33;;;2.60;;
17796;SDS011;55596;53.554;9.916;2023-06-10T08:07:40;11.80;;;2.77;;
17796;SDS011;55596;53.554;9.916;2023-06-10T08:10:08;7.47;;;2.87;;
17796;SDS011;55596;53.554;9.916;2023-06-10T08:12:38;8.63;;;2.70;;
17796;SDS011;55596;53.554;9.916;2023-06-10T08:15:05;6.37;;;2.67;;
17796;SDS011;55596;53.554;9.916;2023-06-10T08:17:40;11.03;;;2.57;;
17796;SDS011;55596;53.554;9.916;2023-06-10T08:20:08;11.67;;;2.43;;
17796;SDS011;55596;53.554;9.916;2023-06-10T08:22:35;7.50;;;2.43;;
17796;SDS011;55596;53.554;9.916;2023-06-10T08:25:02;6.40;;;2.40;;
17796;SDS011;55596;53.554;9.916;2023-06-10T08:27:30;7.17;;;2.60;;
17796;SDS011;55596;53.554;9.916;2023-06-10T08:29:58;7.60;;;2.70;;
17796;SDS011;55596;53.554;9.916;2023-06-10T08:32:26;9.50;;;3.07;;
17796;SDS011;55596;53.554;9.916;2023-06-10T08:34:53;6.63;;;2.63;;
17796;SDS011;55596;53.554;9.916;2023-06-10T08:37:20;7.70;;;2.53;;
17796;SDS011;55596;53.554;9.916;2023-06-10T08:39:47;7.13;;;2.90;;
17796;SDS011;55596;53.554;9.916;2023-06-10T08:42:16;8.13;;;2.30;;
17796;SDS011;55596;53.554;9.916;2023-06-10T08:44:46;8.93;;;2.47;;
17796;SDS011;55596;53.554;9.916;2023-06-10T08:47:16;5.60;;;2.70;;
17796;SDS011;55596;53.554;9.916;2023-06-10T08:49:44;11.40;;;2.93;;
17796;SDS011;55596;53.554;9.916;2023-06-10T08:52:16;8.63;;;2.73;;
17796;SDS011;55596;53.554;9.916;2023-06-10T08:54:45;4.97;;;2.60;;
17796;SDS011;55596;53.554;9.916;2023-06-10T08:57:15;5.80;;;2.53;;
17796;SDS011;55596;53.554;9.916;2023-06-10T08:59:45;8.87;;;2.50;;
17796;SDS011;55596;53.554;9.916;2023-06-10T09:02:17;7.70;;;2.53;;
17796;SDS011;55596;53.554;9.916;2023-06-10T09:04:45;8.60;;;2.80;;
17796;SDS011;55596;53.554;9.916;2023-06-10T09:07:15;8.23;;;2.57;;
17796;SDS011;55596;53.554;9.916;2023-06-10T09:09:42;8.07;;;2.47;;
17796;SDS011;55596;53.554;9.916;2023-06-10T09:12:10;8.50;;;2.80;;
17796;SDS011;55596;53.554;9.916;2023-06-10T09:14:42;10.70;;;3.10;;
17796;SDS011;55596;53.554;9.916;2023-06-10T09:17:10;5.30;;;2.70;;
17796;SDS011;55596;53.554;9.916;2023-06-10T09:19:39;10.10;;;2.80;;
17796;SDS011;55596;53.554;9.916;2023-06-10T09:22:08;8.00;;;3.10;;
17796;SDS011;55596;53.554;9.916;2023-06-10T09:24:35;12.77;;;2.60;;
17796;SDS011;55596;53.554;9.916;2023-06-10T09:27:03;6.82;;;3.00;;
17796;SDS011;55596;53.554;9.916;2023-06-10T09:29:31;6.93;;;2.80;;
17796;SDS011;55596;53.554;9.916;2023-06-10T09:31:59;8.65;;;2.70;;
17796;SDS011;55596;53.554;9.916;2023-06-10T09:34:31;5.50;;;2.72;;
17796;SDS011;55596;53.554;9.916;2023-06-10T09:36:59;8.10;;;2.67;;
17796;SDS011;55596;53.554;9.916;2023-06-10T09:39:27;6.43;;;2.80;;
17796;SDS011;55596;53.554;9.916;2023-06-10T09:41:54;11.07;;;2.90;;
17796;SDS011;55596;53.554;9.916;2023-06-10T09:44:21;7.95;;;2.65;;
17796;SDS011;55596;53.554;9.916;2023-06-10T09:46:50;5.75;;;2.58;;
17796;SDS011;55596;53.554;9.916;2023-06-10T09:49:19;8.77;;;2.80;;
17796;SDS011;55596;53.554;9.916;2023-06-10T09:51:49;8.43;;;3.35;;
17796;SDS011;55596;53.554;9.916;2023-06-10T09:54:20;9.38;;;2.65;;
17796;SDS011;55596;53.554;9.916;2023-06-10T09:56:47;7.00;;;3.42;;
17796;SDS011;55596;53.554;9.916;2023-06-10T09:59:15;9.13;;;3.55;;
17796;SDS011;55596;53.554;9.916;2023-06-10T10:01:42;7.43;;;2.67;;
17796;SDS011;55596;53.554;9.916;2023-06-10T10:04:10;6.00;;;2.85;;
17796;SDS011;55596;53.554;9.916;2023-06-10T10:06:40;7.22;;;3.00;;
17796;SDS011;55596;53.554;9.916;2023-06-10T10:09:09;8.38;;;2.72;;
17796;SDS011;55596;53.554;9.916;2023-06-10T10:11:38;11.57;;;3.20;;
17796;SDS011;55596;53.554;9.916;2023-06-10T10:14:07;6.20;;;2.40;;
17796;SDS011;55596;53.554;9.916;2023-06-10T10:16:35;7.97;;;3.35;;
17796;SDS011;55596;53.554;9.916;2023-06-10T10:19:07;6.07;;;2.55;;
17796;SDS011;55596;53.554;9.916;2023-06-10T10:21:38;9.07;;;2.90;;
17796;SDS011;55596;53.554;9.916;2023-06-10T10:24:08;9.38;;;3.15;;
17796;SDS011;55596;53.554;9.916;2023-06-10T10:26:38;5.93;;;2.75;;
17796;SDS011;55596;53.554;9.916;2023-06-10T10:29:07;9.35;;;2.45;;
17796;SDS011;55596;53.554;9.916;2023-06-10T10:31:37;16.02;;;3.42;;
17796;SDS011;55596;53.554;9.916;2023-06-10T10:34:06;6.97;;;2.90;;
17796;SDS011;55596;53.554;9.916;2023-06-10T10:36:34;7.55;;;2.53;;
17796;SDS011;55596;53.554;9.916;2023-06-10T10:39:02;13.15;;;3.08;;
17796;SDS011;55596;53.554;9.916;2023-06-10T10:41:29;5.00;;;2.83;;
17796;SDS011;55596;53.554;9.916;2023-06-10T10:43:58;10.10;;;3.30;;
17796;SDS011;55596;53.554;9.916;2023-06-10T10:46:26;5.03;;;3.25;;
17796;SDS011;55596;53.554;9.916;2023-06-10T10:48:54;10.65;;;2.97;;
17796;SDS011;55596;53.554;9.916;2023-06-10T10:51:23;7.35;;;3.45;;
17796;SDS011;55596;53.554;9.916;2023-06-10T10:56:36;7.45;;;3.10;;
17796;SDS011;55596;53.554;9.916;2023-06-10T10:59:06;7.15;;;2.88;;
17796;SDS011;55596;53.554;9.916;2023-06-10T11:01:41;8.32;;;3.42;;
17796;SDS011;55596;53.554;9.916;2023-06-10T11:04:11;6.75;;;3.05;;
17796;SDS011;55596;53.554;9.916;2023-06-10T11:06:38;8.70;;;3.25;;
17796;SDS011;55596;53.554;9.916;2023-06-10T11:11:50;6.35;;;2.63;;
17796;SDS011;55596;53.554;9.916;2023-06-10T11:14:26;6.45;;;3.28;;
17796;SDS011;55596;53.554;9.916;2023-06-10T11:16:56;7.78;;;3.17;;
17796;SDS011;55596;53.554;9.916;2023-06-10T11:19:32;6.95;;;3.00;;
17796;SDS011;55596;53.554;9.916;2023-06-10T11:22:01;10.43;;;3.08;;
17796;SDS011;55596;53.554;9.916;2023-06-10T11:24:28;9.00;;;3.17;;
17796;SDS011;55596;53.554;9.916;2023-06-10T11:26:55;7.40;;;3.10;;
17796;SDS011;55596;53.554;9.916;2023-06-10T11:29:55;5.75;;;3.17;;
17796;SDS011;55596;53.554;9.916;2023-06-10T11:32:24;8.75;;;3.35;;
17796;SDS011;55596;53.554;9.916;2023-06-10T11:34:55;9.23;;;3.13;;
17796;SDS011;55596;53.554;9.916;2023-06-10T11:37:23;9.82;;;2.88;;
17796;SDS011;55596;53.554;9.916;2023-06-10T11:39:51;10.27;;;2.83;;
17796;SDS011;55596;53.554;9.916;2023-06-10T11:42:18;8.93;;;2.92;;
17796;SDS011;55596;53.554;9.916;2023-06-10T11:44:50;5.93;;;2.88;;
17796;SDS011;55596;53.554;9.916;2023-06-10T11:47:19;6.82;;;2.92;;
17796;SDS011;55596;53.554;9.916;2023-06-10T11:49:55;7.38;;;2.97;;
17796;SDS011;55596;53.554;9.916;2023-06-10T11:52:25;14.43;;;3.10;;
17796;SDS011;55596;53.554;9.916;2023-06-10T11:54:53;6.38;;;2.78;;
17796;SDS011;55596;53.554;9.916;2023-06-10T11:57:21;7.88;;;3.10;;
17796;SDS011;55596;53.554;9.916;2023-06-10T11:59:48;6.30;;;2.80;;
17796;SDS011;55596;53.554;9.916;2023-06-10T12:02:15;5.82;;;2.83;;
17796;SDS011;55596;53.554;9.916;2023-06-10T12:04:45;8.05;;;3.28;;
17796;SDS011;55596;53.554;9.916;2023-06-10T12:07:16;6.60;;;3.08;;
17796;SDS011;55596;53.554;9.916;2023-06-10T12:09:45;5.50;;;2.53;;
17796;SDS011;55596;53.554;9.916;2023-06-10T12:12:16;5.97;;;3.15;;
17796;SDS011;55596;53.554;9.916;2023-06-10T12:14:51;6.10;;;3.00;;
17796;SDS011;55596;53.554;9.916;2023-06-10T12:17:23;8.48;;;3.28;;
17796;SDS011;55596;53.554;9.916;2023-06-10T12:19:52;7.93;;;3.55;;
17796;SDS011;55596;53.554;9.916;2023-06-10T12:22:19;5.85;;;3.38;;
17796;SDS011;55596;53.554;9.916;2023-06-10T12:24:57;8.82;;;3.55;;
17796;SDS011;55596;53.554;9.916;2023-06-10T12:27:25;7.88;;;3.45;;
17796;SDS011;55596;53.554;9.916;2023-06-10T12:29:55;7.25;;;3.22;;
17796;SDS011;55596;53.554;9.916;2023-06-10T12:32:34;7.95;;;3.40;;
17796;SDS011;55596;53.554;9.916;2023-06-10T12:35:03;8.60;;;3.55;;
17796;SDS011;55596;53.554;9.916;2023-06-10T12:37:31;11.07;;;3.92;;
17796;SDS011;55596;53.554;9.916;2023-06-10T12:39:59;12.88;;;3.78;;
17796;SDS011;55596;53.554;9.916;2023-06-10T12:42:27;7.55;;;4.22;;
17796;SDS011;55596;53.554;9.916;2023-06-10T12:44:55;9.82;;;3.90;;
17796;SDS011;55596;53.554;9.916;2023-06-10T12:47:28;8.40;;;3.92;;
17796;SDS011;55596;53.554;9.916;2023-06-10T12:49:57;8.60;;;3.50;;
17796;SDS011;55596;53.554;9.916;2023-06-10T12:52:26;8.32;;;2.92;;
17796;SDS011;55596;53.554;9.916;2023-06-10T12:54:54;9.75;;;4.00;;
17796;SDS011;55596;53.554;9.916;2023-06-10T12:57:22;9.27;;;3.63;;
17796;SDS011;55596;53.554;9.916;2023-06-10T12:59:49;5.45;;;3.20;;
17796;SDS011;55596;53.554;9.916;2023-06-10T13:02:17;6.72;;;3.28;;
17796;SDS011;55596;53.554;9.916;2023-06-10T13:04:45;12.43;;;3.70;;
17796;SDS011;55596;53.554;9.916;2023-06-10T13:07:13;6.72;;;3.30;;
17796;SDS011;55596;53.554;9.916;2023-06-10T13:09:41;6.28;;;3.28;;
17796;SDS011;55596;53.554;9.916;2023-06-10T13:12:10;6.97;;;3.22;;
17796;SDS011;55596;53.554;9.916;2023-06-10T13:14:38;6.55;;;3.15;;
17796;SDS011;55596;53.554;9.916;2023-06-10T13:17:05;10.20;;;3.45;;
17796;SDS011;55596;53.554;9.916;2023-06-10T13:19:33;10.07;;;4.00;;
17796;SDS011;55596;53.554;9.916;2023-06-10T13:22:00;11.77;;;3.65;;
17796;SDS011;55596;53.554;9.916;2023-06-10T13:24:27;5.55;;;3.20;;
17796;SDS011;55596;53.554;9.916;2023-06-10T13:26:56;16.27;;;6.15;;
17796;SDS011;55596;53.554;9.916;2023-06-10T13:29:23;5.25;;;3.30;;
17796;SDS011;55596;53.554;9.916;2023-06-10T13:31:52;12.23;;;3.80;;
17796;SDS011;55596;53.554;9.916;2023-06-10T13:34:19;7.93;;;3.58;;
17796;SDS011;55596;53.554;9.916;2023-06-10T13:36:46;7.28;;;3.42;;
17796;SDS011;55596;53.554;9.916;2023-06-10T13:39:14;11.30;;;3.55;;
17796;SDS011;55596;53.554;9.916;2023-06-10T13:41:42;8.40;;;3.63;;
17796;SDS011;55596;53.554;9.916;2023-06-10T13:44:11;6.75;;;3.90;;
17796;SDS011;55596;53.554;9.916;2023-06-10T13:46:38;8.90;;;3.47;;
17796;SDS011;55596;53.554;9.916;2023-06-10T13:49:06;8.63;;;3.83;;
17796;SDS011;55596;53.554;9.916;2023-06-10T13:51:33;8.32;;;3.50;;
17796;SDS011;55596;53.554;9.916;2023-06-10T13:54:03;6.50;;;3.40;;
17796;SDS011;55596;53.554;9.916;2023-06-10T13:56:30;6.80;;;3.17;;
17796;SDS011;55596;53.554;9.916;2023-06-10T13:58:59;5.90;;;3.17;;
17796;SDS011;55596;53.554;9.916;2023-06-10T14:01:32;6.10;;;3.00;;
17796;SDS011;55596;53.554;9.916;2023-06-10T14:04:00;11.40;;;3.55;;
17796;SDS011;55596;53.554;9.916;2023-06-10T14:06:27;11.10;;;3.33;;
17796;SDS011;55596;53.554;9.916;2023-06-10T14:08:55;20.35;;;4.07;;
17796;SDS011;55596;53.554;9.916;2023-06-10T14:11:23;6.28;;;3.30;;
17796;SDS011;55596;53.554;9.916;2023-06-10T14:13:52;7.80;;;3.10;;
17796;SDS011;55596;53.554;9.916;2023-06-10T14:16:21;9.18;;;3.35;;
17796;SDS011;55596;53.554;9.916;2023-06-10T14:18:50;9.70;;;3.72;;
17796;SDS011;55596;53.554;9.916;2023-06-10T14:21:19;14.02;;;3.25;;
17796;SDS011;55596;53.554;9.916;2023-06-10T14:23:46;9.05;;;3.00;;
17796;SDS011;55596;53.554;9.916;2023-06-10T14:26:15;12.88;;;3.20;;
17796;SDS011;55596;53.554;9.916;2023-06-10T14:28:42;8.68;;;3.20;;
17796;SDS011;55596;53.554;9.916;2023-06-10T14:31:09;11.00;;;3.65;;
17796;SDS011;55596;53.554;9.916;2023-06-10T14:33:37;9.50;;;4.32;;
17796;SDS011;55596;53.554;9.916;2023-06-10T14:36:06;7.40;;;3.10;;
17796;SDS011;55596;53.554;9.916;2023-06-10T14:38:33;10.98;;;3.03;;
17796;SDS011;55596;53.554;9.916;2023-06-10T14:41:01;6.63;;;3.50;;
17796;SDS011;55596;53.554;9.916;2023-06-10T14:43:28;13.10;;;3.50;;
17796;SDS011;55596;53.554;9.916;2023-06-10T14:45:55;5.45;;;3.20;;
17796;SDS011;55596;53.554;9.916;2023-06-10T14:48:23;10.05;;;3.63;;
17796;SDS011;55596;53.554;9.916;2023-06-10T14:50:50;7.80;;;3.45;;
17796;SDS011;55596;53.554;9.916;2023-06-10T14:53:18;8.93;;;3.13;;
17796;SDS011;55596;53.554;9.916;2023-06-10T14:55:46;13.88;;;3.30;;
17796;SDS011;55596;53.554;9.916;2023-06-10T14:58:15;9.25;;;3.55;;